createdAt,value
2022-08-17T00:00:42.878Z,20.63
2022-08-17T00:03:10.915Z,20.51
2022-08-17T00:05:45.036Z,20.59
2022-08-17T00:08:14.841Z,20.75
2022-08-17T00:10:44.041Z,20.71
2022-08-17T00:13:16.053Z,20.67
2022-08-17T00:15:44.935Z,20.71
2022-08-17T00:19:01.244Z,20.69
2022-08-17T00:21:10.558Z,20.68
2022-08-17T00:23:46.231Z,20.71
2022-08-17T00:26:43.503Z,20.66
2022-08-17T00:29:08.404Z,20.61
2022-08-17T00:31:38.163Z,20.56
2022-08-17T00:34:10.142Z,20.37
2022-08-17T00:36:38.691Z,20.25
2022-08-17T00:39:06.818Z,20.06
2022-08-17T00:41:35.958Z,20.13
2022-08-17T00:44:09.804Z,20.08
2022-08-17T00:46:41.092Z,20.07
2022-08-17T00:49:12.496Z,20.05
2022-08-17T00:51:44.220Z,20.06
2022-08-17T00:54:16.175Z,20.17
2022-08-17T00:56:47.732Z,19.95
2022-08-17T00:59:21.126Z,19.79
2022-08-17T01:01:51.391Z,19.67
2022-08-17T01:04:22.755Z,19.55
2022-08-17T01:06:52.308Z,19.48
2022-08-17T01:09:21.501Z,19.42
2022-08-17T01:11:52.857Z,19.51
2022-08-17T01:14:21.703Z,19.35
2022-08-17T01:16:51.717Z,19.28
2022-08-17T01:19:24.634Z,19.39
2022-08-17T01:22:00.490Z,19.49
2022-08-17T01:24:31.233Z,19.52
2022-08-17T01:27:01.978Z,19.54
2022-08-17T01:29:32.782Z,19.62
2022-08-17T01:32:04.857Z,19.65
2022-08-17T01:34:42.352Z,19.52
2022-08-17T01:37:11.644Z,19.40
2022-08-17T01:39:45.061Z,19.30
2022-08-17T01:42:30.654Z,19.03
2022-08-17T01:45:03.243Z,19.06
2022-08-17T01:47:31.879Z,19.10
2022-08-17T01:50:10.757Z,19.28
2022-08-17T01:52:39.494Z,19.41
2022-08-17T01:55:10.214Z,19.53
2022-08-17T01:57:38.549Z,19.64
2022-08-17T02:00:10.233Z,19.66
2022-08-17T02:02:39.190Z,19.67
2022-08-17T02:05:08.720Z,19.63
2022-08-17T02:07:59.393Z,19.73
2022-08-17T02:10:34.109Z,19.86
2022-08-17T02:13:03.111Z,19.99
2022-08-17T02:15:32.167Z,20.12
2022-08-17T02:18:00.713Z,20.25
2022-08-17T02:20:41.501Z,20.31
2022-08-17T02:23:13.000Z,20.30
2022-08-17T02:25:45.280Z,20.33
2022-08-17T02:28:13.696Z,20.18
2022-08-17T02:30:59.851Z,20.30
2022-08-17T02:33:43.238Z,20.38
2022-08-17T02:36:13.957Z,20.46
2022-08-17T02:38:42.806Z,20.53
2022-08-17T02:41:12.724Z,20.40
2022-08-17T02:43:40.908Z,20.31
2022-08-17T02:46:09.548Z,20.33
2022-08-17T02:48:37.713Z,20.36
2022-08-17T02:51:05.879Z,20.41
2022-08-17T02:53:35.873Z,20.48
2022-08-17T02:56:04.990Z,20.47
2022-08-17T02:58:36.064Z,20.30
2022-08-17T03:01:05.258Z,20.32
2022-08-17T03:03:33.495Z,20.23
2022-08-17T03:06:02.474Z,20.23
2022-08-17T03:08:31.643Z,20.06
2022-08-17T03:10:59.764Z,20.02
2022-08-17T03:13:28.390Z,20.04
2022-08-17T03:15:57.974Z,20.05
2022-08-17T03:18:27.975Z,19.84
2022-08-17T03:20:59.141Z,19.65
2022-08-17T03:23:29.587Z,19.68
2022-08-17T03:25:59.403Z,19.65
2022-08-17T03:28:28.307Z,19.52
2022-08-17T03:30:58.130Z,19.18
2022-08-17T03:33:26.912Z,19.25
2022-08-17T03:35:56.159Z,19.34
2022-08-17T03:38:24.835Z,19.32
2022-08-17T03:40:59.409Z,19.29
2022-08-17T03:43:30.037Z,19.19
2022-08-17T03:46:27.724Z,19.29
2022-08-17T03:49:15.677Z,19.19
2022-08-17T03:52:01.586Z,18.86
2022-08-17T03:54:47.088Z,18.90
2022-08-17T03:57:15.221Z,18.85
2022-08-17T03:59:45.008Z,18.78
2022-08-17T04:02:20.847Z,18.82
2022-08-17T04:04:51.339Z,18.96
2022-08-17T04:07:20.557Z,19.03
2022-08-17T04:09:49.166Z,19.11
2022-08-17T04:12:18.767Z,19.04
2022-08-17T04:14:51.646Z,19.15
2022-08-17T04:17:25.262Z,19.13
2022-08-17T04:19:54.235Z,19.21
2022-08-17T04:22:30.753Z,19.28
2022-08-17T04:25:05.572Z,19.26
2022-08-17T04:27:33.797Z,19.26
2022-08-17T04:30:02.070Z,19.34
2022-08-17T04:33:00.802Z,19.34
2022-08-17T04:35:23.895Z,19.31
2022-08-17T04:37:52.379Z,19.44
2022-08-17T04:40:40.677Z,19.53
2022-08-17T04:43:11.094Z,19.60
2022-08-17T04:45:55.251Z,19.77
2022-08-17T04:48:35.517Z,20.01
2022-08-17T04:51:10.080Z,20.20
2022-08-17T04:53:39.603Z,20.34
2022-08-17T04:56:16.104Z,20.53
2022-08-17T04:58:46.282Z,20.78
2022-08-17T05:01:14.708Z,21.03
2022-08-17T05:03:45.114Z,20.92
2022-08-17T05:06:13.421Z,21.03
2022-08-17T05:08:41.846Z,21.40
2022-08-17T05:11:10.301Z,21.69
2022-08-17T05:13:38.447Z,21.91
2022-08-17T05:16:07.086Z,21.88
2022-08-17T05:18:35.168Z,21.99
2022-08-17T05:21:04.806Z,21.99
2022-08-17T05:23:41.728Z,22.12
2022-08-17T05:26:25.937Z,21.96
2022-08-17T05:28:57.274Z,22.03
2022-08-17T05:31:54.639Z,22.15
2022-08-17T05:34:23.505Z,22.32
2022-08-17T05:36:52.932Z,22.54
2022-08-17T05:39:21.263Z,22.77
2022-08-17T05:41:49.416Z,22.57
2022-08-17T05:44:18.190Z,22.70
2022-08-17T05:46:50.115Z,23.23
2022-08-17T05:49:27.180Z,23.37
2022-08-17T05:52:24.027Z,23.29
2022-08-17T05:55:04.145Z,23.73
2022-08-17T05:57:47.447Z,23.79
2022-08-17T06:00:26.472Z,23.86
2022-08-17T06:03:18.513Z,24.04
2022-08-17T06:05:59.514Z,24.30
2022-08-17T06:08:39.684Z,24.27
2022-08-17T06:11:19.861Z,24.42
2022-08-17T06:14:05.215Z,24.72
2022-08-17T06:16:39.147Z,25.06
2022-08-17T06:19:14.288Z,25.18
2022-08-17T06:21:45.416Z,25.30
2022-08-17T06:24:25.753Z,25.44
2022-08-17T06:26:56.218Z,25.63
2022-08-17T06:29:37.191Z,25.95
2022-08-17T06:32:08.959Z,26.12
2022-08-17T06:34:38.845Z,26.42
2022-08-17T06:37:18.809Z,26.80
2022-08-17T06:39:56.670Z,26.79
2022-08-17T06:43:05.515Z,27.02
2022-08-17T06:45:32.419Z,27.78
2022-08-17T06:48:06.877Z,27.90
2022-08-17T06:50:36.949Z,28.31
2022-08-17T06:53:08.745Z,28.84
2022-08-17T06:55:46.592Z,28.93
2022-08-17T06:58:16.905Z,28.93
2022-08-17T07:00:47.570Z,29.19
2022-08-17T07:03:24.104Z,33.13
2022-08-17T07:05:55.477Z,39.38
2022-08-17T07:08:35.035Z,43.19
2022-08-17T07:11:09.736Z,44.43
2022-08-17T07:13:51.057Z,47.28
2022-08-17T07:16:25.873Z,46.35
2022-08-17T07:18:55.513Z,47.77
2022-08-17T07:21:40.830Z,46.45
2022-08-17T07:24:26.296Z,43.91
2022-08-17T07:27:09.390Z,41.73
2022-08-17T07:29:44.190Z,42.94
2022-08-17T07:32:18.634Z,42.88
2022-08-17T07:35:11.364Z,41.65
2022-08-17T07:37:40.971Z,41.93
2022-08-17T07:40:22.025Z,41.01
2022-08-17T07:43:26.291Z,39.06
2022-08-17T07:46:30.061Z,41.18
2022-08-17T07:49:16.879Z,43.83
2022-08-17T07:52:00.003Z,41.38
2022-08-17T07:54:48.332Z,43.63
2022-08-17T07:57:40.613Z,43.96
2022-08-17T08:00:19.719Z,37.95
2022-08-17T08:03:04.353Z,39.91
2022-08-17T08:05:49.861Z,42.50
2022-08-17T08:08:27.506Z,43.02
2022-08-17T08:11:02.155Z,44.38
2022-08-17T08:13:32.184Z,45.66
2022-08-17T08:16:24.503Z,46.47
2022-08-17T08:18:57.622Z,45.14
2022-08-17T08:21:36.362Z,42.88
2022-08-17T08:24:31.329Z,43.40
2022-08-17T08:27:09.164Z,47.97
2022-08-17T08:29:48.716Z,47.54
2022-08-17T08:32:22.005Z,44.65
2022-08-17T08:35:06.500Z,46.11
2022-08-17T08:37:44.486Z,48.42
2022-08-17T08:40:29.865Z,47.58
2022-08-17T08:43:08.348Z,47.72
2022-08-17T08:45:45.563Z,48.25
2022-08-17T08:48:53.271Z,48.44
2022-08-17T08:51:21.144Z,49.10
2022-08-17T08:54:02.353Z,47.21
2022-08-17T08:56:37.735Z,44.97
2022-08-17T08:59:14.921Z,41.97
2022-08-17T09:01:52.864Z,44.35
2022-08-17T09:05:10.266Z,43.08
2022-08-17T09:07:44.760Z,38.89
2022-08-17T09:10:22.699Z,40.96
2022-08-17T09:13:09.317Z,43.19
2022-08-17T09:15:43.486Z,41.04
2022-08-17T09:19:01.132Z,43.63
2022-08-17T09:21:11.192Z,44.68
2022-08-17T09:23:49.421Z,42.98
2022-08-17T09:26:22.973Z,45.39
2022-08-17T09:28:54.933Z,46.60
2022-08-17T09:31:33.118Z,44.29
2022-08-17T09:34:34.459Z,44.04
2022-08-17T09:37:12.522Z,45.71
2022-08-17T09:39:47.345Z,46.15
2022-08-17T09:42:22.762Z,46.21
2022-08-17T09:45:10.675Z,46.51
2022-08-17T09:47:45.760Z,45.37
2022-08-17T09:51:04.456Z,38.74
2022-08-17T09:53:10.419Z,37.01
2022-08-17T09:56:02.785Z,35.48
2022-08-17T09:58:41.721Z,35.40
2022-08-17T10:01:23.649Z,34.25
2022-08-17T10:04:20.388Z,33.95
2022-08-17T10:06:54.230Z,34.06
2022-08-17T10:09:34.100Z,32.64
2022-08-17T10:12:21.466Z,33.12
2022-08-17T10:15:07.898Z,33.19
2022-08-17T10:17:43.980Z,33.51
2022-08-17T10:20:18.168Z,33.71
2022-08-17T10:23:08.748Z,33.77
2022-08-17T10:26:12.336Z,33.76
2022-08-17T10:28:48.902Z,33.29
2022-08-17T10:31:48.418Z,33.56
2022-08-17T10:34:40.423Z,33.72
2022-08-17T10:37:28.348Z,34.06
2022-08-17T10:40:07.378Z,34.80
2022-08-17T10:42:45.749Z,35.07
2022-08-17T10:45:20.824Z,36.30
2022-08-17T10:48:05.354Z,38.41
2022-08-17T10:51:00.106Z,39.97
2022-08-17T10:53:58.206Z,39.84
2022-08-17T10:56:42.197Z,39.75
2022-08-17T10:59:10.253Z,40.01
2022-08-17T11:02:05.239Z,40.41
2022-08-17T11:04:53.790Z,40.08
2022-08-17T11:07:38.507Z,40.21
2022-08-17T11:10:21.644Z,38.52
2022-08-17T11:13:01.105Z,39.31
2022-08-17T11:15:51.633Z,39.25
2022-08-17T11:18:38.496Z,39.83
2022-08-17T11:21:20.405Z,39.38
2022-08-17T11:24:11.381Z,39.06
2022-08-17T11:26:46.501Z,38.04
2022-08-17T11:29:21.805Z,37.21
2022-08-17T11:32:05.958Z,38.05
2022-08-17T11:34:36.523Z,36.48
2022-08-17T11:37:31.803Z,38.50
2022-08-17T11:40:16.019Z,38.92
2022-08-17T11:42:59.985Z,38.77
2022-08-17T11:45:47.869Z,38.68
2022-08-17T11:48:40.773Z,39.28
2022-08-17T11:51:32.399Z,38.42
2022-08-17T11:54:34.908Z,38.22
2022-08-17T11:56:53.783Z,37.32
2022-08-17T11:59:58.582Z,36.19
2022-08-17T12:02:35.110Z,36.93
2022-08-17T12:05:27.370Z,37.63
2022-08-17T12:08:07.943Z,36.97
2022-08-17T12:10:40.876Z,37.80
2022-08-17T12:13:17.421Z,38.30
2022-08-17T12:15:49.730Z,38.00
2022-08-17T12:18:23.121Z,37.38
2022-08-17T12:21:08.224Z,36.88
2022-08-17T12:23:44.276Z,36.41
2022-08-17T12:26:19.477Z,36.12
2022-08-17T12:28:49.755Z,35.28
2022-08-17T12:31:47.457Z,34.97
2022-08-17T12:34:19.993Z,34.56
2022-08-17T12:36:51.006Z,34.83
2022-08-17T12:39:22.841Z,34.82
2022-08-17T12:42:01.955Z,34.72
2022-08-17T12:44:32.594Z,34.05
2022-08-17T12:47:04.834Z,33.86
2022-08-17T12:49:35.249Z,33.86
2022-08-17T12:52:08.611Z,33.86
2022-08-17T12:54:48.048Z,33.88
2022-08-17T12:57:18.903Z,33.62
2022-08-17T12:59:50.961Z,33.66
2022-08-17T13:02:44.141Z,34.29
2022-08-17T13:05:24.076Z,34.63
2022-08-17T13:07:53.184Z,34.10
2022-08-17T13:10:31.586Z,33.48
2022-08-17T13:13:05.099Z,33.78
2022-08-17T13:15:44.805Z,34.32
2022-08-17T13:18:39.444Z,33.06
2022-08-17T13:21:13.813Z,33.89
2022-08-17T13:23:44.792Z,34.32
2022-08-17T13:26:29.510Z,34.24
2022-08-17T13:28:58.140Z,33.94
2022-08-17T13:31:56.653Z,34.23
2022-08-17T13:35:02.146Z,35.01
2022-08-17T13:37:30.135Z,36.36
2022-08-17T13:40:19.209Z,36.98
2022-08-17T13:42:52.545Z,37.15
2022-08-17T13:45:50.502Z,36.92
2022-08-17T13:48:28.227Z,35.24
2022-08-17T13:51:16.292Z,33.82
2022-08-17T13:53:57.757Z,34.35
2022-08-17T13:56:39.175Z,33.64
2022-08-17T13:59:12.309Z,32.93
2022-08-17T14:01:42.378Z,32.83
2022-08-17T14:04:13.300Z,33.33
2022-08-17T14:06:54.055Z,32.76
2022-08-17T14:09:25.106Z,33.07
2022-08-17T14:11:55.437Z,33.11
2022-08-17T14:14:25.165Z,32.83
2022-08-17T14:16:53.767Z,33.24
2022-08-17T14:19:22.812Z,33.38
2022-08-17T14:21:51.016Z,33.49
2022-08-17T14:24:23.317Z,33.72
2022-08-17T14:26:52.933Z,34.34
2022-08-17T14:29:21.217Z,34.38
2022-08-17T14:31:54.435Z,34.37
2022-08-17T14:34:23.909Z,34.12
2022-08-17T14:36:52.405Z,34.72
2022-08-17T14:39:20.994Z,35.87
2022-08-17T14:41:49.089Z,35.45
2022-08-17T14:44:17.534Z,35.40
2022-08-17T14:46:46.130Z,35.71
2022-08-17T14:49:16.104Z,34.05
2022-08-17T14:51:44.639Z,33.09
2022-08-17T14:54:32.714Z,32.89
2022-08-17T14:57:04.718Z,32.79
2022-08-17T14:59:53.225Z,34.04
2022-08-17T15:02:29.314Z,34.29
2022-08-17T15:05:05.079Z,33.76
2022-08-17T15:07:33.247Z,33.35
2022-08-17T15:10:02.098Z,33.24
2022-08-17T15:12:34.338Z,33.11
2022-08-17T15:15:04.755Z,32.83
2022-08-17T15:17:44.781Z,33.37
2022-08-17T15:20:27.672Z,33.55
2022-08-17T15:22:57.373Z,33.66
2022-08-17T15:25:26.575Z,33.20
2022-08-17T15:27:55.706Z,33.26
2022-08-17T15:30:24.399Z,32.62
2022-08-17T15:32:55.340Z,32.88
2022-08-17T15:35:28.948Z,32.77
2022-08-17T15:38:06.494Z,33.47
2022-08-17T15:40:36.875Z,33.10
2022-08-17T15:43:07.964Z,33.08
2022-08-17T15:45:35.961Z,32.32
2022-08-17T15:48:04.486Z,32.73
2022-08-17T15:50:33.870Z,32.44
2022-08-17T15:53:03.551Z,32.18
2022-08-17T15:55:34.258Z,32.86
2022-08-17T15:58:02.223Z,33.21
2022-08-17T16:00:30.476Z,33.44
2022-08-17T16:03:45.180Z,33.55
2022-08-17T16:05:52.888Z,33.71
2022-08-17T16:08:21.496Z,33.96
2022-08-17T16:10:50.223Z,33.05
2022-08-17T16:13:19.290Z,32.71
2022-08-17T16:15:56.226Z,33.05
2022-08-17T16:18:30.738Z,33.29
2022-08-17T16:21:21.428Z,33.51
2022-08-17T16:23:51.344Z,33.11
2022-08-17T16:26:19.816Z,33.93
2022-08-17T16:28:48.317Z,34.14
2022-08-17T16:31:17.151Z,33.04
2022-08-17T16:34:16.110Z,33.35
2022-08-17T16:36:35.351Z,33.99
2022-08-17T16:39:03.218Z,33.65
2022-08-17T16:41:46.421Z,33.35
2022-08-17T16:44:15.860Z,33.92
2022-08-17T16:46:45.994Z,34.36
2022-08-17T16:49:31.952Z,34.38
2022-08-17T16:52:05.205Z,34.71
2022-08-17T16:54:35.505Z,34.63
2022-08-17T16:57:05.056Z,34.68
2022-08-17T16:59:40.280Z,34.11
2022-08-17T17:02:11.447Z,34.04
2022-08-17T17:04:45.145Z,33.63
2022-08-17T17:07:41.027Z,33.01
2022-08-17T17:10:13.645Z,32.75
2022-08-17T17:13:02.330Z,32.82
2022-08-17T17:15:41.429Z,33.19
2022-08-17T17:18:14.743Z,33.29
2022-08-17T17:20:48.569Z,33.48
2022-08-17T17:23:31.174Z,33.16
2022-08-17T17:26:08.615Z,32.85
2022-08-17T17:28:43.470Z,32.58
2022-08-17T17:31:41.212Z,32.13
2022-08-17T17:34:13.722Z,31.54
2022-08-17T17:36:47.059Z,31.14
2022-08-17T17:39:20.060Z,30.81
2022-08-17T17:41:52.256Z,30.49
2022-08-17T17:44:25.732Z,30.12
2022-08-17T17:46:57.087Z,29.89
2022-08-17T17:49:27.049Z,29.69
2022-08-17T17:52:11.118Z,29.53
2022-08-17T17:54:54.008Z,29.16
2022-08-17T17:57:33.828Z,28.87
2022-08-17T18:00:09.190Z,28.64
2022-08-17T18:02:52.589Z,28.39
2022-08-17T18:05:35.877Z,27.98
2022-08-17T18:08:33.793Z,27.72
2022-08-17T18:11:24.023Z,27.57
2022-08-17T18:14:10.699Z,27.41
2022-08-17T18:16:42.725Z,27.25
2022-08-17T18:19:14.091Z,27.09
2022-08-17T18:21:44.717Z,26.97
2022-08-17T18:24:13.833Z,26.80
2022-08-17T18:26:47.905Z,26.62
2022-08-17T18:29:32.150Z,26.45
2022-08-17T18:32:26.091Z,26.26
2022-08-17T18:34:58.084Z,26.04
2022-08-17T18:37:35.767Z,25.81
2022-08-17T18:40:26.937Z,25.75
2022-08-17T18:43:07.719Z,25.61
2022-08-17T18:45:40.887Z,25.58
2022-08-17T18:48:20.780Z,25.39
2022-08-17T18:50:48.728Z,25.33
2022-08-17T18:53:33.537Z,25.12
2022-08-17T18:56:30.859Z,24.92
2022-08-17T18:59:10.865Z,24.66
2022-08-17T19:01:53.466Z,24.51
2022-08-17T19:04:36.124Z,24.46
2022-08-17T19:07:08.212Z,24.46
2022-08-17T19:09:41.328Z,24.50
2022-08-17T19:12:27.214Z,24.23
2022-08-17T19:14:58.405Z,24.31
2022-08-17T19:17:35.348Z,24.32
2022-08-17T19:20:11.521Z,24.24
2022-08-17T19:22:55.029Z,23.97
2022-08-17T19:25:27.240Z,23.77
2022-08-17T19:28:00.646Z,23.76
2022-08-17T19:30:32.776Z,23.60
2022-08-17T19:33:03.643Z,23.58
2022-08-17T19:35:42.059Z,23.52
2022-08-17T19:38:18.396Z,23.56
2022-08-17T19:41:00.193Z,23.52
2022-08-17T19:43:40.256Z,23.65
2022-08-17T19:46:19.837Z,23.58
2022-08-17T19:48:53.520Z,23.60
2022-08-17T19:51:31.333Z,23.74
2022-08-17T19:54:06.932Z,23.56
2022-08-17T19:56:42.419Z,23.39
2022-08-17T19:59:16.677Z,23.41
2022-08-17T20:01:51.040Z,23.31
2022-08-17T20:04:32.488Z,23.08
2022-08-17T20:07:04.318Z,22.90
2022-08-17T20:09:37.877Z,22.81
2022-08-17T20:12:10.196Z,22.62
2022-08-17T20:14:53.593Z,22.60
2022-08-17T20:17:28.387Z,22.64
2022-08-17T20:20:02.574Z,22.66
2022-08-17T20:22:36.797Z,22.70
2022-08-17T20:25:30.533Z,22.74
2022-08-17T20:28:05.734Z,22.63
2022-08-17T20:30:38.370Z,22.54
2022-08-17T20:33:23.223Z,22.37
2022-08-17T20:36:03.561Z,22.34
2022-08-17T20:38:42.266Z,22.35
2022-08-17T20:41:14.427Z,22.46
2022-08-17T20:43:48.956Z,22.32
2022-08-17T20:46:31.613Z,22.18
2022-08-17T20:49:16.961Z,22.05
2022-08-17T20:52:01.726Z,22.06
2022-08-17T20:54:44.511Z,22.16
2022-08-17T20:57:51.354Z,22.18
2022-08-17T21:00:45.821Z,22.23
2022-08-17T21:03:51.139Z,22.15
2022-08-17T21:06:26.299Z,22.15
2022-08-17T21:08:58.644Z,22.05
2022-08-17T21:12:03.503Z,22.01
2022-08-17T21:14:59.850Z,21.99
2022-08-17T21:17:41.840Z,21.88
2022-08-17T21:20:25.313Z,21.77
2022-08-17T21:23:08.824Z,21.59
2022-08-17T21:25:58.394Z,21.65
2022-08-17T21:29:00.396Z,21.48
2022-08-17T21:31:37.511Z,21.39
2022-08-17T21:34:31.339Z,21.34
2022-08-17T21:37:29.750Z,21.39
2022-08-17T21:40:02.907Z,21.36
2022-08-17T21:42:34.642Z,21.41
2022-08-17T21:45:10.851Z,21.34
2022-08-17T21:47:47.729Z,21.29
2022-08-17T21:50:21.651Z,21.34
2022-08-17T21:52:54.580Z,21.32
2022-08-17T21:55:28.907Z,21.28
2022-08-17T21:58:11.381Z,21.30
2022-08-17T22:00:45.016Z,21.31
2022-08-17T22:03:24.623Z,21.27
2022-08-17T22:05:52.463Z,21.21
2022-08-17T22:08:23.602Z,21.05
2022-08-17T22:11:01.700Z,20.97
2022-08-17T22:13:30.145Z,20.81
2022-08-17T22:16:27.840Z,20.51
2022-08-17T22:18:58.714Z,20.58
2022-08-17T22:21:27.167Z,20.58
2022-08-17T22:24:03.985Z,20.58
2022-08-17T22:27:08.523Z,20.63
2022-08-17T22:29:54.292Z,20.71
2022-08-17T22:32:39.546Z,20.65
2022-08-17T22:35:32.618Z,20.58
2022-08-17T22:38:32.046Z,20.46
2022-08-17T22:41:27.204Z,20.47
2022-08-17T22:43:57.712Z,20.59
2022-08-17T22:46:26.659Z,20.62
2022-08-17T22:48:57.870Z,20.65
2022-08-17T22:51:29.634Z,20.44
2022-08-17T22:54:18.573Z,20.29
2022-08-17T22:57:14.288Z,20.22
2022-08-17T22:59:50.900Z,20.08
2022-08-17T23:02:25.561Z,20.13
2022-08-17T23:04:57.346Z,20.10
2022-08-17T23:07:25.162Z,20.06
2022-08-17T23:09:55.051Z,20.05
2022-08-17T23:12:27.497Z,20.07
2022-08-17T23:15:01.653Z,19.75
2022-08-17T23:17:37.131Z,19.68
2022-08-17T23:20:08.251Z,19.65
2022-08-17T23:22:38.243Z,19.55
2022-08-17T23:25:28.250Z,19.35
2022-08-17T23:27:57.423Z,19.35
2022-08-17T23:30:28.495Z,19.53
2022-08-17T23:33:02.263Z,19.58
2022-08-17T23:35:40.578Z,19.63
2022-08-17T23:38:10.040Z,19.79
2022-08-17T23:40:39.422Z,19.80
2022-08-17T23:43:23.536Z,19.66
2022-08-17T23:45:55.009Z,19.46
2022-08-17T23:48:36.290Z,19.68
2022-08-17T23:51:09.407Z,19.70
2022-08-17T23:53:40.402Z,19.68
2022-08-17T23:56:11.257Z,19.67
2022-08-17T23:58:42.240Z,19.61
